Terminal Aerodrome Forecast
Issued by NWS

Home | Current Version | Previous Version | Text Only | Print | Product List | Glossary On
Versions: 1 2 3 4 5 6 7 8 9 10 11 12 13 14 15 16 17 18 19 20 21 22 23 24
000
FTUS43 KLOT 161741
TAFGYY
TAF
KGYY 161741Z 1618/1718 26017KT 2SM -SN BKN012 OVC030
      TEMPO 1618/1622 3/4SM -SN
     FM162200 29008KT 6SM -SN BKN025
     FM170000 28007KT P6SM BKN025
     FM170600 26008KT P6SM FEW007 SCT120 BKN180
     FM171600 25012G18KT P6SM BKN070=

USA.gov is the U.S. government's official web portal to all federal, state and local government web resources and services.